Time;durP1;ratioP1;P1;durP2;ratioP2;P2;SDS_P1;SDS_P2;PMS_P1;PMS_P2;Temp;Humidity;BMP_temperature;BMP_pressure;BME280_temperature;BME280_humidity;BME280_pressure;Samples;Min_cycle;Max_cycle;Signal;HPM_P1;HPM_P2
2022/01/15 00:01:48;;;;;;;96.25;14.27;;;9.80;99.90;;;;;;4807703;29;20564;-81
2022/01/15 00:04:14;;;;;;;43.70;15.32;;;;;;;;;;4814714;29;20126;-81
2022/01/15 00:06:40;;;;;;;57.85;14.73;;;8.40;99.90;;;;;;4800599;29;20097;-81
2022/01/15 00:09:06;;;;;;;58.47;15.27;;;;;;;;;;4795755;29;20109;-81
2022/01/15 00:11:34;;;;;;;87.22;18.15;;;8.40;99.90;;;;;;4807090;29;20051;-81
2022/01/15 00:14:12;;;;;;;73.13;19.25;;;8.40;99.90;;;;;;4806970;29;20065;-82
2022/01/15 00:16:46;;;;;;;70.97;18.90;;;10.10;99.90;;;;;;4808653;29;20055;-81
2022/01/15 00:19:15;;;;;;;91.70;20.27;;;8.40;99.90;;;;;;4814340;29;20462;-83
2022/01/15 00:21:41;;;;;;;105.63;21.33;;;9.70;99.90;;;;;;4805253;29;20222;-81
2022/01/15 00:24:07;;;;;;;129.88;22.10;;;8.50;99.90;;;;;;4809085;29;20042;-81
2022/01/15 00:26:34;;;;;;;67.30;18.80;;;8.50;99.90;;;;;;4816307;29;20504;-81
2022/01/15 00:29:00;;;;;;;84.60;19.85;;;9.80;99.90;;;;;;4805644;29;20051;-81
2022/01/15 00:31:27;;;;;;;89.85;20.52;;;8.90;99.90;;;;;;4804801;29;20042;-81
2022/01/15 00:33:52;;;;;;;91.05;19.45;;;8.60;99.90;;;;;;4819102;29;20050;-82
2022/01/15 00:36:18;;;;;;;82.10;19.75;;;8.50;99.90;;;;;;4807824;29;20134;-80
2022/01/15 00:38:45;;;;;;;78.47;19.75;;;8.50;99.90;;;;;;4793193;29;20051;-81
2022/01/15 00:41:11;;;;;;;57.60;17.75;;;8.50;99.90;;;;;;4792764;29;20121;-80
2022/01/15 00:43:37;;;;;;;96.72;18.52;;;8.50;99.90;;;;;;4806542;29;20051;-80
2022/01/15 00:46:03;;;;;;;85.20;17.88;;;8.50;99.90;;;;;;4807541;29;20442;-80
2022/01/15 00:48:29;;;;;;;76.47;18.23;;;9.20;99.90;;;;;;4804434;29;20086;-80
2022/01/15 00:50:54;;;;;;;56.47;16.48;;;8.50;99.90;;;;;;4808022;29;20133;-81
2022/01/15 00:53:20;;;;;;;58.45;16.48;;;9.40;99.90;;;;;;4809705;29;20047;-83
2022/01/15 00:55:46;;;;;;;95.43;17.15;;;8.50;99.90;;;;;;4804757;29;20047;-81
2022/01/15 00:58:12;;;;;;;116.10;18.27;;;8.90;99.90;;;;;;4787763;29;20065;-80
2022/01/15 01:00:38;;;;;;;105.20;18.85;;;8.60;99.90;;;;;;4807576;29;20118;-81
2022/01/15 01:03:04;;;;;;;56.90;15.95;;;8.50;99.90;;;;;;4808961;29;20070;-80
2022/01/15 01:05:30;;;;;;;76.43;17.48;;;10.10;99.90;;;;;;4789030;29;20452;-81
2022/01/15 01:07:59;;;;;;;64.47;16.60;;;8.80;99.90;;;;;;4805042;29;20058;-84
2022/01/15 01:23:39;;;;;;;15.02;6.03;;;8.60;99.90;;;;;;4804351;29;20058;-81
2022/01/15 01:26:12;;;;;;;17.00;6.95;;;8.80;99.90;;;;;;4802148;29;20047;-81
2022/01/15 01:28:43;;;;;;;21.55;6.65;;;9.40;99.90;;;;;;4803606;29;20058;-82
2022/01/15 01:31:22;;;;;;;20.27;6.32;;;8.50;99.90;;;;;;4803696;29;20046;-82
2022/01/15 01:33:52;;;;;;;14.85;5.40;;;10.70;99.90;;;;;;4809740;29;20054;-82
2022/01/15 01:36:47;;;;;;;17.17;6.13;;;8.30;99.90;;;;;;4797102;29;20050;-81
2022/01/15 01:39:11;;;;;;;21.10;6.93;;;8.00;99.90;;;;;;4786437;29;20138;-82
2022/01/15 01:41:41;;;;;;;23.38;6.90;;;8.30;99.90;;;;;;4798247;29;20250;-82
2022/01/15 01:44:14;;;;;;;18.17;5.85;;;;;;;;;;4804497;29;20050;-82
2022/01/15 01:46:49;;;;;;;12.40;4.70;;;8.60;99.90;;;;;;4810900;29;20514;-81
2022/01/15 01:49:15;;;;;;;11.02;4.07;;;9.00;99.90;;;;;;4803575;29;20135;-81
2022/01/15 01:51:42;;;;;;;8.25;3.65;;;8.20;99.90;;;;;;4803285;29;20084;-81
2022/01/15 01:54:10;;;;;;;17.10;3.65;;;8.00;99.90;;;;;;4803567;29;20099;-80
2022/01/15 01:56:36;;;;;;;11.20;4.05;;;8.20;99.90;;;;;;4808033;29;20038;-81
2022/01/15 01:59:04;;;;;;;13.52;4.30;;;9.40;99.90;;;;;;4803137;29;20141;-81
2022/01/15 02:01:30;;;;;;;10.82;4.20;;;8.90;99.90;;;;;;4790158;29;20405;-81
2022/01/15 02:03:56;;;;;;;12.50;4.30;;;;;;;;;;4810761;29;20059;-80
2022/01/15 02:06:22;;;;;;;14.35;4.28;;;8.20;99.90;;;;;;4808702;29;20050;-80
2022/01/15 02:08:49;;;;;;;13.00;4.32;;;8.10;99.90;;;;;;4803298;29;20381;-81
2022/01/15 02:11:15;;;;;;;21.35;4.75;;;10.20;99.90;;;;;;4786495;29;20062;-81
2022/01/15 02:13:44;;;;;;;10.32;4.28;;;8.20;99.90;;;;;;4801685;29;20141;-81
2022/01/15 02:16:10;;;;;;;11.32;4.20;;;8.10;99.90;;;;;;4804501;29;20062;-81
2022/01/15 02:18:36;;;;;;;17.33;4.05;;;8.20;99.90;;;;;;4791745;29;20050;-87
2022/01/15 02:23:43;;;;;;;16.60;4.55;;;8.20;99.90;;;;;;4803561;29;20066;-87
2022/01/15 02:26:15;;;;;;;11.90;4.32;;;10.30;99.90;;;;;;4802861;29;20687;-81
2022/01/15 02:28:44;;;;;;;13.30;3.70;;;5.80;99.90;;;;;;4803623;29;20054;-81
2022/01/15 02:31:12;;;;;;;19.83;5.20;;;9.70;99.90;;;;;;4805167;29;20034;-85
2022/01/15 02:33:39;;;;;;;13.90;4.07;;;10.20;99.90;;;;;;4808754;29;20055;-87
2022/01/15 02:36:11;;;;;;;12.80;3.65;;;8.40;99.90;;;;;;4809022;29;20139;-81
2022/01/15 02:38:38;;;;;;;13.32;4.60;;;8.20;99.90;;;;;;4803257;29;20062;-87
2022/01/15 02:41:03;;;;;;;13.13;3.58;;;9.80;99.90;;;;;;4802769;29;20086;-82
2022/01/15 02:43:32;;;;;;;10.73;4.00;;;8.20;99.90;;;;;;4803912;29;20086;-81
2022/01/15 02:46:18;;;;;;;16.08;4.72;;;8.40;99.90;;;;;;4806171;29;20053;-82
2022/01/15 02:48:54;;;;;;;15.73;4.93;;;8.90;99.90;;;;;;4805955;29;20091;-82
2022/01/15 02:51:22;;;;;;;12.18;4.45;;;8.10;99.90;;;;;;4767572;29;20051;-83
2022/01/15 02:53:57;;;;;;;18.70;4.75;;;8.10;99.90;;;;;;4802932;29;20046;-82
2022/01/15 02:56:35;;;;;;;11.77;4.63;;;8.20;99.90;;;;;;4804034;29;20050;-82
2022/01/15 02:59:04;;;;;;;19.45;5.03;;;8.10;99.90;;;;;;4806929;29;20046;-81
2022/01/15 03:01:30;;;;;;;14.40;5.30;;;8.20;99.90;;;;;;4806165;29;20173;-82
2022/01/15 03:03:56;;;;;;;12.95;5.50;;;9.60;99.90;;;;;;4803164;29;20055;-81
2022/01/15 03:06:22;;;;;;;15.95;5.55;;;8.20;99.90;;;;;;4809448;29;20043;-81
2022/01/15 03:08:49;;;;;;;17.88;5.80;;;8.10;99.90;;;;;;4802754;29;20077;-84
2022/01/15 03:11:15;;;;;;;20.73;6.43;;;8.40;99.90;;;;;;4792288;29;20142;-82
2022/01/15 03:13:43;;;;;;;18.27;6.28;;;8.30;99.90;;;;;;4790079;29;20091;-83
2022/01/15 03:16:14;;;;;;;20.30;6.53;;;8.80;99.90;;;;;;4819819;29;20066;-84
2022/01/15 03:18:41;;;;;;;19.05;6.25;;;8.20;99.90;;;;;;4806804;29;20296;-87
2022/01/15 03:21:06;;;;;;;15.43;6.07;;;9.70;99.90;;;;;;4802084;29;20053;-82
2022/01/15 03:23:32;;;;;;;23.05;7.07;;;9.40;99.90;;;;;;4824291;29;20054;-81
2022/01/15 03:25:58;;;;;;;15.43;6.55;;;8.40;99.90;;;;;;4818065;29;20078;-81
2022/01/15 03:28:24;;;;;;;18.95;6.40;;;9.90;99.90;;;;;;4806338;29;20086;-81
2022/01/15 03:30:50;;;;;;;40.42;7.65;;;8.10;99.90;;;;;;4806115;29;20066;-81
2022/01/15 03:33:16;;;;;;;19.20;6.57;;;8.90;99.90;;;;;;4806477;29;20050;-82
2022/01/15 03:35:43;;;;;;;20.63;6.43;;;8.20;99.90;;;;;;4789978;29;20074;-88
2022/01/15 03:38:09;;;;;;;17.92;6.68;;;8.20;99.90;;;;;;4807283;29;20058;-82
2022/01/15 03:40:36;;;;;;;17.55;6.68;;;10.00;99.90;;;;;;4808091;29;20459;-83
2022/01/15 03:43:04;;;;;;;17.02;6.60;;;8.20;99.90;;;;;;4805494;29;20130;-82
2022/01/15 03:45:30;;;;;;;15.43;6.22;;;;;;;;;;4806135;29;20066;-82
2022/01/15 03:47:59;;;;;;;15.80;6.45;;;8.20;99.90;;;;;;4805305;29;20047;-81
2022/01/15 03:50:26;;;;;;;16.63;6.95;;;9.70;99.90;;;;;;4806759;29;20050;-81
2022/01/15 03:52:53;;;;;;;15.07;6.53;;;8.90;99.90;;;;;;4798096;29;20485;-82
2022/01/15 03:55:20;;;;;;;17.30;7.13;;;8.10;99.90;;;;;;4809006;29;20134;-82
2022/01/15 03:57:46;;;;;;;17.60;6.88;;;10.10;99.90;;;;;;4805590;29;20051;-88
2022/01/15 04:00:14;;;;;;;16.88;6.72;;;6.10;99.90;;;;;;4805359;29;20059;-82
2022/01/15 04:02:41;;;;;;;15.75;7.13;;;8.10;99.90;;;;;;4789564;29;20079;-82
2022/01/15 04:05:08;;;;;;;17.20;7.55;;;8.00;99.90;;;;;;4805476;29;20070;-83
2022/01/15 04:07:34;;;;;;;18.52;7.97;;;;;;;;;;4789190;29;20082;-82
2022/01/15 04:10:00;;;;;;;20.70;6.93;;;9.50;99.90;;;;;;4808163;29;20111;-83
2022/01/15 04:12:25;;;;;;;22.77;8.30;;;8.40;99.90;;;;;;4805521;29;20518;-83
2022/01/15 04:14:51;;;;;;;17.20;7.30;;;8.10;99.90;;;;;;4803676;29;20062;-83
2022/01/15 04:17:17;;;;;;;23.90;7.95;;;8.00;99.90;;;;;;4805533;29;20047;-82
2022/01/15 04:19:43;;;;;;;56.00;8.55;;;8.00;99.90;;;;;;4805227;29;20057;-82
2022/01/15 04:22:08;;;;;;;28.33;8.07;;;7.90;99.90;;;;;;4774143;29;20572;-82
2022/01/15 04:24:34;;;;;;;27.58;7.80;;;8.00;99.90;;;;;;4804792;29;20055;-81
2022/01/15 04:27:00;;;;;;;17.58;6.82;;;9.00;99.90;;;;;;4804141;29;20507;-82
2022/01/15 04:29:25;;;;;;;15.65;6.35;;;8.00;99.90;;;;;;4805736;29;20053;-85
2022/01/15 04:31:51;;;;;;;18.83;6.80;;;9.60;99.90;;;;;;4799343;29;20134;-88
2022/01/15 04:34:21;;;;;;;19.20;7.22;;;9.50;99.90;;;;;;4812810;29;20191;-83
2022/01/15 04:36:49;;;;;;;20.60;7.15;;;9.30;99.90;;;;;;4804723;29;20481;-84
2022/01/15 04:39:15;;;;;;;19.80;7.40;;;;;;;;;;4803976;29;20372;-82
2022/01/15 04:41:41;;;;;;;22.27;7.25;;;8.00;99.90;;;;;;4788931;29;20051;-82
2022/01/15 04:44:07;;;;;;;25.58;7.85;;;8.00;99.90;;;;;;4805346;29;20047;-82
2022/01/15 04:46:33;;;;;;;24.35;8.15;;;7.90;99.90;;;;;;4804954;29;20054;-81
2022/01/15 04:48:59;;;;;;;21.08;6.78;;;8.40;99.90;;;;;;4804347;29;20508;-82
2022/01/15 04:51:25;;;;;;;23.08;7.60;;;9.40;99.90;;;;;;4803449;29;20053;-81
2022/01/15 04:53:51;;;;;;;24.75;8.15;;;8.00;99.90;;;;;;4789596;29;20050;-81
2022/01/15 04:56:16;;;;;;;23.00;7.60;;;8.70;99.90;;;;;;4786913;29;20503;-81
2022/01/15 04:58:42;;;;;;;25.33;8.80;;;8.70;99.90;;;;;;4805052;29;20082;-81
2022/01/15 05:01:08;;;;;;;20.83;7.95;;;10.00;99.90;;;;;;4804676;29;20051;-83
2022/01/15 05:03:33;;;;;;;25.45;8.73;;;9.90;99.90;;;;;;4789215;29;20050;-82
2022/01/15 05:05:59;;;;;;;21.02;7.70;;;9.60;99.90;;;;;;4788489;29;20071;-82
2022/01/15 05:08:25;;;;;;;19.85;7.85;;;8.30;99.90;;;;;;4806567;29;20074;-83
2022/01/15 05:10:53;;;;;;;20.52;7.75;;;8.60;99.90;;;;;;4804450;29;20046;-82
2022/01/15 05:13:26;;;;;;;19.38;8.27;;;8.00;99.90;;;;;;4805264;29;20159;-82
2022/01/15 05:15:51;;;;;;;18.92;8.07;;;9.80;99.90;;;;;;4808507;29;20096;-81
2022/01/15 05:18:18;;;;;;;20.92;7.28;;;8.80;99.90;;;;;;4788388;29;20543;-82
2022/01/15 05:20:45;;;;;;;21.30;7.43;;;10.10;99.90;;;;;;4805198;29;20144;-82
2022/01/15 05:23:11;;;;;;;20.63;7.50;;;8.10;99.90;;;;;;4819263;29;20126;-86
2022/01/15 05:25:38;;;;;;;24.05;7.80;;;9.60;99.90;;;;;;4804890;29;20674;-84
2022/01/15 05:28:04;;;;;;;21.50;7.93;;;10.10;99.90;;;;;;4803909;29;20452;-86
2022/01/15 05:30:30;;;;;;;20.35;7.97;;;9.40;99.90;;;;;;4805836;29;20536;-81
2022/01/15 05:32:56;;;;;;;23.75;8.18;;;7.90;99.90;;;;;;4803347;29;20055;-82
2022/01/15 05:35:26;;;;;;;23.00;8.63;;;7.90;99.90;;;;;;4789633;29;20141;-82
2022/01/15 05:37:52;;;;;;;19.40;7.05;;;7.90;99.90;;;;;;4803694;29;20123;-82
2022/01/15 05:40:18;;;;;;;22.33;7.63;;;7.90;99.90;;;;;;4809733;29;20082;-82
2022/01/15 05:42:45;;;;;;;17.38;7.57;;;10.00;99.90;;;;;;4803616;29;20087;-82
2022/01/15 05:45:12;;;;;;;24.40;8.32;;;8.10;99.90;;;;;;4802812;29;20051;-81
2022/01/15 05:47:38;;;;;;;24.17;8.65;;;7.90;99.90;;;;;;4793471;29;20493;-81
2022/01/15 05:50:04;;;;;;;22.88;7.85;;;8.00;99.90;;;;;;4803699;29;20069;-82
2022/01/15 05:52:30;;;;;;;19.88;7.22;;;7.80;99.90;;;;;;4804082;29;20105;-82
2022/01/15 05:54:55;;;;;;;19.42;7.68;;;9.70;99.90;;;;;;4806778;29;20501;-81
2022/01/15 05:57:21;;;;;;;29.27;7.75;;;9.10;99.90;;;;;;4804369;29;20047;-81
2022/01/15 05:59:47;;;;;;;21.45;6.82;;;10.10;99.90;;;;;;4802872;29;20509;-85
2022/01/15 06:02:12;;;;;;;27.83;7.63;;;7.90;99.90;;;;;;4805796;29;20042;-81
2022/01/15 06:04:38;;;;;;;19.08;7.20;;;8.20;99.90;;;;;;4788203;29;20082;-82
2022/01/15 06:07:04;;;;;;;19.85;6.50;;;7.80;99.90;;;;;;4786638;29;20051;-83
2022/01/15 06:09:29;;;;;;;15.23;7.03;;;7.90;99.90;;;;;;4787514;29;20051;-81
2022/01/15 06:11:56;;;;;;;18.38;6.88;;;7.90;99.90;;;;;;4810125;29;20131;-81
2022/01/15 06:14:22;;;;;;;21.35;6.55;;;7.90;99.90;;;;;;4806799;29;20204;-81
2022/01/15 06:16:48;;;;;;;20.92;7.30;;;8.90;99.90;;;;;;4804418;29;20111;-81
2022/01/15 06:19:14;;;;;;;25.80;7.68;;;;;;;;;;4808650;29;20046;-81
2022/01/15 06:21:40;;;;;;;26.52;8.02;;;8.30;99.90;;;;;;4803361;29;20119;-80
2022/01/15 06:24:06;;;;;;;26.25;7.80;;;8.10;99.90;;;;;;4803653;29;20555;-82
2022/01/15 06:26:32;;;;;;;23.35;9.32;;;7.90;99.90;;;;;;4794178;29;20046;-81
2022/01/15 06:28:57;;;;;;;29.30;10.07;;;7.80;99.90;;;;;;4801798;29;20492;-84
2022/01/15 06:31:23;;;;;;;28.95;8.95;;;9.00;99.90;;;;;;4809693;29;20057;-81
2022/01/15 06:33:49;;;;;;;27.52;9.75;;;7.80;99.90;;;;;;4805727;29;20172;-82
2022/01/15 06:36:15;;;;;;;29.08;10.00;;;;;;;;;;4803382;29;20070;-82
2022/01/15 06:38:41;;;;;;;18.73;8.05;;;7.80;99.90;;;;;;4803930;29;20116;-82
2022/01/15 06:41:06;;;;;;;24.08;7.75;;;10.30;99.90;;;;;;4811057;29;20082;-82
2022/01/15 06:43:32;;;;;;;23.65;7.75;;;;;;;;;;4802781;29;20501;-82
2022/01/15 06:45:58;;;;;;;22.40;7.78;;;7.80;99.90;;;;;;4802742;29;20046;-81
2022/01/15 06:48:24;;;;;;;22.77;7.82;;;7.50;99.90;;;;;;4809150;29;20065;-81
2022/01/15 06:50:50;;;;;;;17.25;7.35;;;7.60;99.90;;;;;;4812470;29;20073;-81
2022/01/15 06:53:16;;;;;;;20.15;7.32;;;7.80;99.90;;;;;;4786365;29;20054;-81
2022/01/15 06:55:42;;;;;;;23.92;9.38;;;7.80;99.90;;;;;;4804130;29;20413;-81
2022/01/15 06:58:08;;;;;;;22.48;8.15;;;9.60;99.90;;;;;;4802309;29;20046;-88
2022/01/15 07:00:34;;;;;;;33.60;9.73;;;9.10;99.90;;;;;;4807271;29;20054;-81
2022/01/15 07:03:01;;;;;;;28.30;10.05;;;9.70;99.90;;;;;;4802189;29;20104;-81
2022/01/15 07:05:27;;;;;;;34.05;10.38;;;7.70;99.90;;;;;;4788646;29;20846;-80
2022/01/15 07:07:53;;;;;;;32.85;10.93;;;8.80;99.90;;;;;;4803430;29;20135;-81
2022/01/15 07:10:19;;;;;;;27.63;9.43;;;7.70;99.90;;;;;;4806045;29;20066;-81
2022/01/15 07:12:44;;;;;;;36.13;11.05;;;7.70;99.90;;;;;;4800619;29;20073;-81
2022/01/15 07:15:11;;;;;;;37.83;11.45;;;6.90;99.90;;;;;;4802796;29;20069;-79
2022/01/15 07:17:41;;;;;;;28.77;10.43;;;7.60;99.90;;;;;;4803074;29;20055;-80
2022/01/15 07:20:08;;;;;;;31.40;11.02;;;7.60;99.90;;;;;;4803513;29;20379;-82
2022/01/15 07:22:33;;;;;;;33.42;11.48;;;7.60;99.90;;;;;;4803032;29;20150;-80
2022/01/15 07:24:59;;;;;;;29.50;11.10;;;8.30;99.90;;;;;;4802913;29;20142;-81
2022/01/15 07:27:25;;;;;;;31.73;10.25;;;7.90;99.90;;;;;;4800406;29;20051;-79
2022/01/15 07:29:53;;;;;;;29.52;11.02;;;8.00;99.90;;;;;;4808764;29;20058;-79
2022/01/15 07:32:19;;;;;;;30.20;10.88;;;9.40;99.90;;;;;;4796629;29;20058;-79
2022/01/15 07:34:44;;;;;;;28.20;10.52;;;7.60;99.90;;;;;;4806281;29;20055;-83
2022/01/15 07:37:10;;;;;;;30.38;10.45;;;9.40;99.90;;;;;;4803017;29;20115;-80
2022/01/15 07:39:36;;;;;;;29.63;9.43;;;7.60;99.90;;;;;;4814055;29;20049;-80
2022/01/15 07:42:03;;;;;;;33.42;11.00;;;7.60;99.90;;;;;;4805838;29;20378;-80
2022/01/15 07:44:28;;;;;;;33.55;11.00;;;7.60;99.90;;;;;;4795045;29;20058;-80
2022/01/15 07:46:54;;;;;;;30.08;9.55;;;9.00;99.90;;;;;;4798632;29;20043;-80
2022/01/15 07:49:20;;;;;;;35.55;10.90;;;7.60;99.90;;;;;;4801825;29;20050;-79
2022/01/15 07:51:46;;;;;;;28.45;9.65;;;7.60;99.90;;;;;;4803701;29;20460;-80
2022/01/15 07:54:12;;;;;;;29.60;10.23;;;8.60;99.90;;;;;;4802160;29;20079;-80
2022/01/15 07:56:38;;;;;;;28.17;9.48;;;9.60;99.90;;;;;;4785382;29;20103;-81
2022/01/15 07:59:03;;;;;;;31.95;10.73;;;8.20;99.90;;;;;;4802067;29;20143;-79
2022/01/15 08:01:29;;;;;;;28.08;9.75;;;7.50;99.90;;;;;;4801899;29;20078;-80
2022/01/15 08:03:55;;;;;;;23.95;10.10;;;9.30;99.90;;;;;;4793350;29;20416;-80
2022/01/15 08:06:21;;;;;;;18.05;7.55;;;7.50;99.90;;;;;;4811138;29;20090;-80
2022/01/15 08:08:46;;;;;;;19.52;7.78;;;7.80;99.90;;;;;;4807243;29;20055;-81
2022/01/15 08:11:12;;;;;;;21.58;8.60;;;9.50;99.90;;;;;;4805491;29;20126;-80
2022/01/15 08:13:38;;;;;;;20.58;8.75;;;7.30;99.90;;;;;;4805109;29;20178;-80
2022/01/15 08:16:04;;;;;;;19.02;8.93;;;7.20;99.90;;;;;;4789821;29;20082;-81
2022/01/15 08:18:31;;;;;;;25.25;10.05;;;7.00;99.90;;;;;;4798168;29;20489;-80
2022/01/15 08:20:58;;;;;;;26.52;10.15;;;7.50;99.90;;;;;;4803550;29;20134;-83
2022/01/15 08:23:23;;;;;;;21.98;8.95;;;7.20;99.90;;;;;;4804830;29;20727;-81
2022/01/15 08:25:49;;;;;;;20.58;8.75;;;6.00;99.90;;;;;;4791831;29;20054;-80
2022/01/15 08:28:17;;;;;;;21.35;9.40;;;;;;;;;;4804891;29;20058;-81
2022/01/15 08:30:43;;;;;;;;;;;7.30;99.90;;;;;;4803715;29;20473;-81
2022/01/15 08:33:09;;;;;;;26.42;10.30;;;7.90;99.90;;;;;;4812314;29;19996;-80
2022/01/15 08:35:35;;;;;;;26.10;9.93;;;7.40;99.90;;;;;;4795038;29;20099;-82
2022/01/15 08:38:03;;;;;;;31.60;11.50;;;7.40;99.90;;;;;;4804375;29;20108;-81
2022/01/15 08:40:29;;;;;;;;;;;7.50;99.90;;;;;;4803931;29;20059;-82
2022/01/15 08:42:55;;;;;;;30.50;12.52;;;8.30;99.90;;;;;;4804477;29;20045;-82
2022/01/15 08:45:21;;;;;;;27.48;11.23;;;7.50;99.90;;;;;;4805319;29;20043;-77
2022/01/15 08:47:47;;;;;;;41.53;12.63;;;7.50;99.90;;;;;;4805870;29;20058;-81
2022/01/15 08:50:15;;;;;;;41.15;12.80;;;9.40;99.90;;;;;;4789073;29;20062;-80
2022/01/15 08:52:41;;;;;;;39.15;13.90;;;7.50;99.90;;;;;;4804827;29;20606;-81
2022/01/15 08:55:08;;;;;;;34.25;13.45;;;7.50;99.90;;;;;;4804911;29;20051;-80
2022/01/15 08:57:34;;;;;;;36.60;13.07;;;7.70;99.90;;;;;;4803789;29;20047;-81
2022/01/15 09:00:01;;;;;;;35.03;13.98;;;7.50;99.90;;;;;;4805588;29;20046;-80
2022/01/15 09:02:27;;;;;;;34.15;14.48;;;6.40;99.90;;;;;;4805138;29;20130;-80
2022/01/15 09:04:53;;;;;;;31.20;12.43;;;9.10;99.90;;;;;;4806000;29;20540;-84
2022/01/15 09:07:19;;;;;;;32.70;14.48;;;7.40;99.90;;;;;;4805149;29;20053;-81
2022/01/15 09:09:45;;;;;;;33.15;13.23;;;9.10;99.90;;;;;;4803873;29;20497;-80
2022/01/15 09:12:15;;;;;;;36.40;13.75;;;7.90;99.90;;;;;;4804025;29;20102;-81
2022/01/15 09:14:41;;;;;;;32.15;13.07;;;8.70;99.90;;;;;;4804640;29;20507;-86
2022/01/15 09:17:07;;;;;;;28.85;12.43;;;8.70;99.90;;;;;;4802898;29;20050;-80
2022/01/15 09:19:33;;;;;;;31.10;12.35;;;10.80;99.90;;;;;;4804208;29;20116;-80
2022/01/15 09:22:00;;;;;;;34.58;12.80;;;7.40;99.90;;;;;;4804147;29;20089;-80
2022/01/15 09:24:26;;;;;;;35.90;13.95;;;7.30;99.90;;;;;;4803059;29;20046;-81
2022/01/15 09:32:04;;;;;;;28.88;12.60;;;7.90;99.90;;;;;;4804768;29;20062;-81
2022/01/15 09:34:32;;;;;;;35.25;14.55;;;7.40;99.90;;;;;;4787596;29;20058;-80
2022/01/15 09:36:58;;;;;;;31.02;12.93;;;9.20;99.90;;;;;;4802801;29;20095;-81
2022/01/15 09:39:24;;;;;;;29.58;12.27;;;9.40;99.90;;;;;;4787965;29;20358;-82
2022/01/15 09:41:53;;;;;;;32.25;13.60;;;8.50;99.90;;;;;;4813436;29;20066;-80
2022/01/15 09:44:20;;;;;;;31.33;13.93;;;7.40;99.90;;;;;;4804635;29;20093;-80
2022/01/15 09:46:46;;;;;;;32.40;14.25;;;6.80;99.90;;;;;;4804042;29;20459;-81
2022/01/15 09:49:14;;;;;;;31.38;13.18;;;8.50;99.90;;;;;;4804584;29;20465;-80
2022/01/15 09:51:41;;;;;;;41.47;14.35;;;;;;;;;;4797964;29;20541;-81
2022/01/15 09:54:07;;;;;;;40.03;15.13;;;;;;;;;;4803240;29;20073;-81
2022/01/15 09:56:33;;;;;;;31.38;13.57;;;6.80;99.90;;;;;;4803409;29;20150;-81
2022/01/15 09:59:02;;;;;;;47.28;17.65;;;7.30;99.90;;;;;;4804202;29;20098;-81
2022/01/15 10:01:28;;;;;;;43.45;17.45;;;;;;;;;;4800455;29;20451;-91
2022/01/15 10:03:54;;;;;;;43.75;17.13;;;7.40;99.90;;;;;;4797692;29;20077;-81
2022/01/15 10:06:19;;;;;;;44.92;16.58;;;9.10;99.90;;;;;;4803473;29;20492;-82
2022/01/15 10:09:03;;;;;;;44.63;17.85;;;6.90;99.90;;;;;;4803804;29;20081;-83
2022/01/15 10:11:51;;;;;;;48.63;19.52;;;7.30;99.90;;;;;;4803664;29;20094;-91
2022/01/15 10:14:34;;;;;;;54.45;19.55;;;7.20;99.90;;;;;;4803869;29;20084;-85
2022/01/15 10:17:03;;;;;;;46.25;17.90;;;7.60;99.90;;;;;;4802227;29;20134;-81
2022/01/15 10:19:33;;;;;;;53.15;20.38;;;7.30;99.90;;;;;;4803732;29;20412;-80
2022/01/15 10:22:13;;;;;;;55.88;20.77;;;7.60;99.90;;;;;;4802207;29;20042;-81
2022/01/15 10:24:41;;;;;;;49.17;19.80;;;7.10;99.90;;;;;;4802792;29;20388;-81
2022/01/15 10:27:37;;;;;;;49.78;20.83;;;7.20;99.90;;;;;;4809403;29;20133;-81
2022/01/15 10:30:27;;;;;;;46.13;18.25;;;8.00;99.90;;;;;;4775510;29;20066;-83
2022/01/15 10:32:52;;;;;;;;;;;7.70;99.90;;;;;;4803039;29;20123;-82
2022/01/15 10:35:18;;;;;;;50.92;20.10;;;7.20;99.90;;;;;;4803453;29;19964;-83
2022/01/15 10:37:50;;;;;;;50.83;21.13;;;7.20;99.90;;;;;;4795308;29;20222;-83
2022/01/15 10:40:17;;;;;;;57.78;20.58;;;;;;;;;;4803106;29;20267;-83
2022/01/15 10:42:51;;;;;;;49.45;20.92;;;7.20;99.90;;;;;;4801543;29;20477;-83
2022/01/15 10:45:17;;;;;;;47.55;20.80;;;7.80;99.90;;;;;;4787222;29;20437;-83
2022/01/15 10:47:49;;;;;;;52.30;21.13;;;6.60;99.90;;;;;;4802095;29;20063;-84
2022/01/15 10:50:30;;;;;;;58.97;22.23;;;7.20;99.90;;;;;;4796934;29;20508;-80
2022/01/15 10:52:57;;;;;;;54.28;23.48;;;6.60;99.90;;;;;;4802818;29;20179;-81
2022/01/15 10:55:27;;;;;;;56.80;23.73;;;8.10;99.90;;;;;;4803529;29;20066;-82
2022/01/15 10:58:02;;;;;;;59.97;24.00;;;7.10;99.90;;;;;;4788586;29;20050;-81
2022/01/15 11:00:40;;;;;;;66.03;24.15;;;9.10;99.90;;;;;;4804178;29;20059;-81
2022/01/15 11:03:17;;;;;;;63.95;26.30;;;7.20;99.90;;;;;;4789162;29;20047;-81
2022/01/15 11:05:44;;;;;;;60.78;25.45;;;7.10;99.90;;;;;;4802768;29;20059;-82
2022/01/15 11:08:14;;;;;;;70.35;27.67;;;7.10;99.90;;;;;;4804264;29;20357;-82
2022/01/15 11:10:53;;;;;;;59.60;24.90;;;7.20;99.90;;;;;;4801114;29;20051;-83
2022/01/15 11:13:35;;;;;;;65.85;26.75;;;7.20;99.90;;;;;;4785431;29;20164;-81
2022/01/15 11:16:08;;;;;;;65.85;25.55;;;7.20;99.90;;;;;;4770904;30;20127;-82
2022/01/15 11:18:39;;;;;;;55.60;24.58;;;8.10;99.90;;;;;;4785224;29;20529;-81
2022/01/15 11:21:14;;;;;;;52.67;23.77;;;7.40;99.90;;;;;;4784693;29;20097;-83
2022/01/15 11:23:42;;;;;;;42.42;21.98;;;7.50;99.90;;;;;;4783844;29;20130;-85
2022/01/15 11:26:13;;;;;;;39.63;19.85;;;7.90;99.90;;;;;;4782793;30;20411;-82
2022/01/15 11:28:41;;;;;;;42.47;21.20;;;7.20;99.90;;;;;;4782962;29;20079;-89
2022/01/15 11:31:09;;;;;;;44.40;20.88;;;7.80;99.90;;;;;;4777047;29;20066;-85
2022/01/15 11:33:45;;;;;;;44.72;22.27;;;7.10;99.90;;;;;;4784040;29;20062;-83
2022/01/15 11:36:37;;;;;;;43.42;21.10;;;7.20;99.90;;;;;;4793879;29;20050;-81
2022/01/15 11:39:08;;;;;;;44.60;20.58;;;7.30;99.90;;;;;;4778169;30;20084;-82
2022/01/15 11:41:37;;;;;;;48.58;21.40;;;9.70;99.90;;;;;;4784571;29;20051;-81
2022/01/15 11:44:09;;;;;;;46.33;22.27;;;6.90;99.90;;;;;;4787299;29;20051;-83
2022/01/15 11:46:44;;;;;;;41.53;20.63;;;7.00;99.90;;;;;;4787692;30;20115;-82
2022/01/15 11:49:29;;;;;;;45.17;21.60;;;5.50;99.90;;;;;;4793994;29;20426;-81
2022/01/15 11:52:22;;;;;;;42.45;19.00;;;6.50;99.90;;;;;;4786222;30;20432;-82
2022/01/15 11:54:51;;;;;;;34.95;18.52;;;8.60;99.90;;;;;;4781748;29;20134;-83
2022/01/15 11:57:26;;;;;;;47.47;22.13;;;7.00;99.90;;;;;;4786511;30;20102;-83
2022/01/15 11:59:56;;;;;;;42.45;21.70;;;8.50;99.90;;;;;;4787117;29;20417;-84
2022/01/15 12:02:30;;;;;;;44.67;21.40;;;7.00;99.90;;;;;;4787830;29;20489;-82
2022/01/15 12:05:16;;;;;;;48.85;22.40;;;7.50;99.90;;;;;;4789516;29;20438;-83
2022/01/15 12:08:00;;;;;;;45.28;20.52;;;6.30;99.90;;;;;;4794769;29;20093;-86
2022/01/15 12:10:51;;;;;;;41.53;22.65;;;7.10;99.90;;;;;;4805092;29;20409;-83
2022/01/15 12:13:19;;;;;;;44.35;23.30;;;6.90;99.90;;;;;;4799445;29;20082;-86
2022/01/15 12:15:47;;;;;;;48.95;23.77;;;7.00;99.90;;;;;;4804860;29;20059;-82
2022/01/15 12:18:23;;;;;;;54.92;25.33;;;7.70;99.90;;;;;;4804883;29;20062;-83
2022/01/15 12:20:54;;;;;;;53.00;22.60;;;8.20;99.90;;;;;;4806049;29;20061;-83
2022/01/15 12:23:21;;;;;;;52.30;23.15;;;9.00;99.90;;;;;;4805185;29;20126;-83
2022/01/15 12:25:49;;;;;;;51.97;23.67;;;7.00;99.90;;;;;;4804497;29;20133;-82
2022/01/15 12:28:19;;;;;;;53.03;25.98;;;6.80;99.90;;;;;;4803190;29;20079;-82
2022/01/15 12:30:51;;;;;;;52.42;25.50;;;6.80;99.90;;;;;;4807243;29;20458;-83
2022/01/15 12:33:18;;;;;;;58.75;28.52;;;6.90;99.90;;;;;;4805539;29;20082;-82
2022/01/15 12:35:51;;;;;;;55.85;26.92;;;6.70;99.90;;;;;;4806642;29;20127;-84
2022/01/15 12:38:25;;;;;;;62.80;27.83;;;8.40;99.90;;;;;;4806104;29;20600;-86
2022/01/15 12:41:04;;;;;;;60.72;27.50;;;7.30;99.90;;;;;;4805473;29;20054;-83
2022/01/15 12:43:41;;;;;;;57.35;28.23;;;6.90;99.90;;;;;;4789124;29;20197;-83
2022/01/15 12:46:12;;;;;;;62.35;28.42;;;8.10;99.90;;;;;;4789026;29;20051;-83
2022/01/15 12:48:43;;;;;;;56.45;26.90;;;8.90;99.90;;;;;;4806096;29;20089;-83
2022/01/15 12:51:11;;;;;;;50.20;26.00;;;7.10;99.90;;;;;;4791201;29;20065;-83
2022/01/15 12:53:42;;;;;;;60.47;27.27;;;7.10;99.90;;;;;;4823222;29;20054;-83
2022/01/15 12:56:13;;;;;;;53.22;24.65;;;6.90;99.90;;;;;;4803514;29;20055;-82
2022/01/15 12:58:40;;;;;;;52.10;22.38;;;7.70;99.90;;;;;;4789803;29;20119;-83
2022/01/15 13:01:07;;;;;;;52.60;23.63;;;6.60;99.90;;;;;;4804283;29;20078;-84
2022/01/15 13:03:36;;;;;;;53.93;25.33;;;6.80;99.90;;;;;;4805553;29;20497;-83
2022/01/15 13:06:03;;;;;;;53.95;25.90;;;6.90;99.90;;;;;;4804575;29;20050;-82
2022/01/15 13:08:36;;;;;;;53.35;25.75;;;6.90;99.90;;;;;;4805992;29;20130;-83
2022/01/15 13:13:44;;;;;;;51.35;25.17;;;6.90;99.90;;;;;;4805244;29;20055;-82
2022/01/15 13:16:15;;;;;;;47.30;22.60;;;8.30;99.90;;;;;;4787599;29;20245;-82